Time;durP1;ratioP1;P1;durP2;ratioP2;P2;SDS_P1;SDS_P2;PMS_P1;PMS_P2;Temp;Humidity;BMP_temperature;BMP_pressure;BME280_temperature;BME280_humidity;BME280_pressure;Samples;Min_cycle;Max_cycle;Signal;HPM_P1;HPM_P2
2022/05/20 00:02:01;;;;;;;1999.90;999.90;;;14.00;97.20;;;;;;5094724;28;20504;-84
2022/05/20 00:04:26;;;;;;;1999.90;574.58;;;14.00;95.90;;;;;;5095499;28;20079;-86
2022/05/20 00:06:52;;;;;;;1912.78;308.15;;;13.90;93.20;;;;;;5079045;28;20059;-84
2022/05/20 00:09:18;;;;;;;1999.90;430.58;;;14.00;94.60;;;;;;5114210;28;20504;-83
2022/05/20 00:11:43;;;;;;;1999.90;476.77;;;13.90;95.00;;;;;;5078905;28;20048;-83
2022/05/20 00:14:09;;;;;;;1926.70;325.83;;;13.90;93.50;;;;;;5096415;28;20040;-84
2022/05/20 00:16:35;;;;;;;1999.90;441.02;;;13.90;93.80;;;;;;5095996;28;20532;-83
2022/05/20 00:19:03;;;;;;;1908.43;279.98;;;13.90;94.90;;;;;;5095879;28;20044;-84
2022/05/20 00:21:30;;;;;;;1688.78;318.33;;;13.90;92.40;;;;;;5078899;28;20443;-86
2022/05/20 00:23:56;;;;;;;1999.90;999.90;;;13.80;92.50;;;;;;5113732;28;20047;-84
2022/05/20 00:26:22;;;;;;;1999.90;999.90;;;13.90;89.40;;;;;;5078880;28;20444;-84
2022/05/20 00:28:48;;;;;;;1999.90;900.28;;;13.80;84.10;;;;;;5096069;28;20043;-84
2022/05/20 00:31:15;;;;;;;1843.90;808.00;;;13.80;75.10;;;;;;5094873;28;20058;-84
2022/05/20 00:33:41;;;;;;;1999.90;999.90;;;13.80;73.30;;;;;;5094937;28;20052;-84
2022/05/20 00:36:07;;;;;;;1999.90;436.05;;;13.80;75.50;;;;;;5094347;28;20115;-84
2022/05/20 00:38:33;;;;;;;1999.90;695.05;;;13.80;76.70;;;;;;5095749;28;20060;-84
2022/05/20 00:41:00;;;;;;;1999.90;513.30;;;13.90;79.70;;;;;;5096178;28;20048;-84
2022/05/20 00:43:38;;;;;;;1999.90;385.05;;;13.80;82.80;;;;;;5095519;28;20396;-87
2022/05/20 00:46:16;;;;;;;1999.90;718.65;;;13.90;84.20;;;;;;5095925;28;20138;-84
2022/05/20 00:48:43;;;;;;;1999.90;505.42;;;14.00;85.40;;;;;;5095649;28;20050;-83
2022/05/20 00:51:27;;;;;;;1999.90;457.02;;;14.00;83.90;;;;;;5078024;28;20115;-86
2022/05/20 00:53:58;;;;;;;1999.90;738.47;;;14.00;82.40;;;;;;5094107;28;20047;-83
2022/05/20 00:56:46;;;;;;;1999.90;999.90;;;13.90;79.00;;;;;;5095649;28;20051;-85
2022/05/20 00:59:19;;;;;;;1999.90;432.23;;;13.90;74.10;;;;;;5071439;28;20056;-83
2022/05/20 01:01:50;;;;;;;1999.90;838.05;;;13.90;77.20;;;;;;5091593;28;20044;-84
2022/05/20 01:04:16;;;;;;;1999.90;782.20;;;13.40;82.20;;;;;;5090473;28;20135;-84
2022/05/20 01:06:43;;;;;;;1351.87;438.83;;;13.90;81.60;;;;;;5074926;28;20404;-84
2022/05/20 01:09:09;;;;;;;1999.90;999.90;;;13.90;82.00;;;;;;5091356;28;20058;-84
2022/05/20 01:11:39;;;;;;;1878.13;816.78;;;13.90;82.50;;;;;;5090918;28;20127;-83
2022/05/20 01:14:05;;;;;;;1994.18;399.90;;;13.90;83.70;;;;;;5091649;28;20040;-86
2022/05/20 01:16:33;;;;;;;1999.90;696.40;;;13.80;84.40;;;;;;5091516;28;20048;-87
2022/05/20 01:19:00;;;;;;;1999.90;455.05;;;13.80;83.90;;;;;;5073667;28;20048;-83
2022/05/20 01:21:26;;;;;;;1999.90;479.95;;;13.70;86.30;;;;;;5074856;28;20479;-83
2022/05/20 01:23:59;;;;;;;1999.90;626.42;;;13.70;84.00;;;;;;5090158;28;20158;-83
2022/05/20 01:26:25;;;;;;;1999.90;493.33;;;13.60;81.80;;;;;;5091207;28;20039;-83
2022/05/20 01:28:51;;;;;;;1998.18;348.48;;;13.60;80.20;;;;;;5090558;28;20200;-83
2022/05/20 01:31:17;;;;;;;1538.20;249.25;;;13.50;81.20;;;;;;5091653;28;20146;-84
2022/05/20 01:33:46;;;;;;;1802.13;801.03;;;13.40;84.50;;;;;;5090534;28;20635;-84
2022/05/20 01:36:15;;;;;;;1999.90;999.90;;;13.30;86.30;;;;;;5091249;28;20132;-83
2022/05/20 01:38:42;;;;;;;1957.43;268.10;;;13.30;88.20;;;;;;5090061;28;20052;-83
2022/05/20 01:41:07;;;;;;;1999.90;999.90;;;13.10;88.20;;;;;;5074707;28;20101;-83
2022/05/20 01:43:51;;;;;;;1990.90;377.98;;;13.10;90.50;;;;;;5091127;28;20539;-86
2022/05/20 01:46:39;;;;;;;1999.90;999.90;;;13.10;92.20;;;;;;5090963;28;20063;-84
2022/05/20 01:49:20;;;;;;;1684.72;462.77;;;13.00;93.80;;;;;;5091255;28;20410;-84
2022/05/20 01:52:02;;;;;;;1999.90;999.90;;;13.00;95.50;;;;;;5089263;28;20083;-83
2022/05/20 01:54:37;;;;;;;1999.90;323.40;;;13.00;96.40;;;;;;5090083;28;20127;-83
2022/05/20 01:57:24;;;;;;;1675.45;285.17;;;13.00;96.90;;;;;;5090658;28;20095;-86
2022/05/20 01:59:57;;;;;;;1999.90;999.90;;;13.00;97.80;;;;;;5092283;28;20460;-85
2022/05/20 02:02:30;;;;;;;1336.60;234.52;;;12.90;99.30;;;;;;5109671;28;20044;-83
2022/05/20 02:05:24;;;;;;;1819.38;607.60;;;12.90;99.90;;;;;;5111642;28;20044;-83
2022/05/20 02:07:53;;;;;;;1705.85;782.03;;;12.80;99.90;;;;;;5093907;28;20083;-83
2022/05/20 02:10:36;;;;;;;1999.90;475.85;;;12.80;99.90;;;;;;5111768;28;20048;-83
2022/05/20 02:13:08;;;;;;;1913.13;319.05;;;12.80;99.90;;;;;;5077354;28;20132;-84
2022/05/20 02:15:47;;;;;;;1987.00;337.40;;;12.80;99.90;;;;;;5111337;28;20055;-83
2022/05/20 02:18:29;;;;;;;1557.63;264.05;;;12.80;99.90;;;;;;5111528;28;20403;-83
2022/05/20 02:21:01;;;;;;;1999.90;676.05;;;12.20;99.90;;;;;;5093086;28;20040;-83
2022/05/20 02:23:35;;;;;;;1872.82;800.15;;;12.70;99.90;;;;;;5111640;28;20081;-83
2022/05/20 02:26:09;;;;;;;1999.90;999.90;;;12.60;99.90;;;;;;5092474;28;20560;-83
2022/05/20 02:28:40;;;;;;;1999.90;409.77;;;12.50;99.90;;;;;;5075943;28;20134;-83
2022/05/20 02:31:11;;;;;;;1888.90;358.38;;;12.50;99.90;;;;;;5094154;28;20047;-83
2022/05/20 02:33:37;;;;;;;1999.90;999.90;;;12.30;99.90;;;;;;5111570;28;20069;-83
2022/05/20 02:36:23;;;;;;;1999.90;513.42;;;12.20;99.90;;;;;;5090936;28;20051;-82
2022/05/20 02:38:48;;;;;;;1969.32;304.02;;;12.10;99.90;;;;;;5110271;28;20039;-83
2022/05/20 02:41:14;;;;;;;1203.80;182.90;;;12.10;99.90;;;;;;5093500;28;20047;-84
2022/05/20 02:43:40;;;;;;;1999.90;834.22;;;12.00;99.90;;;;;;5111775;28;20043;-87
2022/05/20 02:46:06;;;;;;;1999.90;667.35;;;11.90;99.90;;;;;;5110599;28;20040;-83
2022/05/20 02:48:34;;;;;;;1999.90;377.77;;;11.90;99.90;;;;;;5110527;28;20072;-82
2022/05/20 02:51:00;;;;;;;1999.90;281.52;;;11.80;99.90;;;;;;5110762;28;20047;-82
2022/05/20 02:53:26;;;;;;;1911.55;636.60;;;11.90;99.90;;;;;;5093480;28;20052;-83
2022/05/20 02:55:51;;;;;;;1786.78;594.67;;;11.80;99.90;;;;;;5092443;28;20083;-84
2022/05/20 03:04:10;;;;;;;1903.07;809.70;;;11.70;99.90;;;;;;5093016;28;20047;-83
2022/05/20 03:06:56;;;;;;;1897.65;812.78;;;11.60;99.90;;;;;;5092307;28;20123;-83
2022/05/20 03:09:24;;;;;;;1623.10;245.48;;;12.40;99.90;;;;;;5091636;28;20447;-84
2022/05/20 03:11:50;;;;;;;1653.53;422.67;;;11.60;99.90;;;;;;5092977;28;20399;-83
2022/05/20 03:14:19;;;;;;;1999.90;843.65;;;11.50;99.90;;;;;;5093101;28;20138;-86
2022/05/20 03:16:46;;;;;;;1357.65;195.13;;;11.50;99.90;;;;;;5092485;28;20081;-83
2022/05/20 03:19:12;;;;;;;1876.50;371.88;;;11.70;99.90;;;;;;5110776;28;20047;-83
2022/05/20 03:21:39;;;;;;;1863.07;338.02;;;11.50;99.90;;;;;;5093012;28;20117;-83
2022/05/20 03:24:07;;;;;;;1999.90;557.22;;;11.50;99.90;;;;;;5092541;28;20047;-83
2022/05/20 03:26:33;;;;;;;1999.90;661.42;;;11.60;99.90;;;;;;5092325;28;20059;-83
2022/05/20 03:28:59;;;;;;;1999.90;522.88;;;11.60;99.90;;;;;;5091098;28;20052;-82
2022/05/20 03:31:29;;;;;;;1999.90;561.88;;;11.80;99.90;;;;;;5091929;28;20468;-87
2022/05/20 03:33:56;;;;;;;1999.90;688.90;;;12.40;99.90;;;;;;5091822;28;20040;-83
2022/05/20 03:36:21;;;;;;;1999.90;605.97;;;12.70;99.90;;;;;;5092528;28;20483;-83
2022/05/20 03:38:47;;;;;;;1999.90;481.52;;;12.80;99.90;;;;;;5091909;28;20119;-83
2022/05/20 03:41:14;;;;;;;1999.90;466.70;;;11.70;99.90;;;;;;5092959;28;20043;-85
2022/05/20 03:43:40;;;;;;;1999.90;681.70;;;11.70;99.90;;;;;;5110272;28;20048;-83
2022/05/20 03:46:05;;;;;;;1999.90;606.92;;;11.80;99.90;;;;;;5092537;28;20044;-84
2022/05/20 03:48:31;;;;;;;1999.90;861.60;;;11.80;99.90;;;;;;5109936;28;20043;-85
2022/05/20 03:51:10;;;;;;;1999.90;800.53;;;11.80;99.90;;;;;;5092675;28;20438;-83
2022/05/20 03:53:36;;;;;;;;;;;11.80;99.90;;;;;;5110432;28;20083;-85
2022/05/20 03:56:02;;;;;;;1290.50;158.68;;;12.50;99.90;;;;;;5093885;28;19973;-86
2022/05/20 03:58:27;;;;;;;1707.22;247.05;;;11.70;99.90;;;;;;5096092;28;20058;-84
2022/05/20 04:03:45;;;;;;;1999.90;532.13;;;11.70;99.90;;;;;;5081498;28;20166;-85
2022/05/20 04:06:11;;;;;;;1999.90;441.75;;;11.70;99.90;;;;;;5075384;28;20464;-87
2022/05/20 04:08:38;;;;;;;1999.90;475.80;;;11.80;99.90;;;;;;5112098;28;20066;-83
2022/05/20 04:11:11;;;;;;;1999.90;499.50;;;11.70;99.90;;;;;;5077584;28;20333;-84
2022/05/20 04:13:39;;;;;;;1999.90;514.95;;;11.70;99.90;;;;;;5096133;28;20063;-83
2022/05/20 04:16:08;;;;;;;1999.90;629.00;;;12.40;99.90;;;;;;5095664;28;20097;-83
2022/05/20 04:18:35;;;;;;;1999.90;715.22;;;11.80;99.90;;;;;;5096365;28;20051;-84
2022/05/20 04:21:01;;;;;;;1999.90;634.60;;;12.70;99.90;;;;;;5095792;28;20476;-84
2022/05/20 04:23:27;;;;;;;1999.90;753.08;;;11.90;99.90;;;;;;5114381;28;20040;-84
2022/05/20 04:25:52;;;;;;;1999.90;871.33;;;12.40;99.90;;;;;;5095676;28;20060;-83
2022/05/20 04:28:18;;;;;;;1999.90;820.03;;;12.10;99.90;;;;;;5096133;28;20184;-83
2022/05/20 04:30:44;;;;;;;1999.90;746.67;;;12.10;99.90;;;;;;5079458;28;20051;-83
2022/05/20 04:33:10;;;;;;;1999.90;759.65;;;12.20;99.90;;;;;;5095193;28;20487;-84
2022/05/20 04:35:36;;;;;;;1999.90;799.50;;;12.10;99.90;;;;;;5096066;28;20126;-84
2022/05/20 04:38:02;;;;;;;1999.90;867.08;;;12.10;99.90;;;;;;5095383;28;20112;-84
2022/05/20 04:40:28;;;;;;;1999.90;554.05;;;12.10;99.90;;;;;;5094897;28;20035;-83
2022/05/20 04:48:24;;;;;;;1980.75;333.48;;;11.90;99.90;;;;;;5099044;28;20043;-84
2022/05/20 04:50:49;;;;;;;1560.30;168.15;;;11.90;99.90;;;;;;5113957;28;20043;-83
2022/05/20 04:54:49;;;;;;;1999.90;474.67;;;11.80;99.90;;;;;;5061602;28;20126;-84
2022/05/20 04:56:01;;;;;;;1931.38;313.80;;;11.80;99.90;;;;;;5111656;28;20044;-83
2022/05/20 04:58:27;;;;;;;1933.53;296.80;;;11.80;99.90;;;;;;5095632;28;20479;-83
2022/05/20 05:00:56;;;;;;;1999.90;498.27;;;11.80;99.90;;;;;;5093202;28;20314;-87
2022/05/20 05:03:22;;;;;;;1999.90;856.53;;;11.80;99.90;;;;;;5078382;28;20124;-82
2022/05/20 05:05:48;;;;;;;1999.90;541.22;;;11.80;99.90;;;;;;5095261;28;20051;-85
2022/05/20 05:08:16;;;;;;;1999.90;633.58;;;11.90;99.90;;;;;;5080214;28;20104;-84
2022/05/20 05:10:42;;;;;;;1999.90;509.85;;;11.90;99.90;;;;;;5080170;28;20130;-83
2022/05/20 05:13:09;;;;;;;1999.90;622.33;;;12.50;99.90;;;;;;5096807;28;20096;-83
2022/05/20 05:15:36;;;;;;;1999.90;692.40;;;12.10;99.90;;;;;;5095357;28;20040;-84
2022/05/20 05:18:12;;;;;;;1999.90;548.83;;;12.20;99.90;;;;;;5077830;28;20059;-83
2022/05/20 05:20:46;;;;;;;1999.90;544.00;;;12.10;99.90;;;;;;5094415;28;20390;-84
2022/05/20 05:23:14;;;;;;;1999.90;783.35;;;13.60;99.90;;;;;;5094524;28;20036;-83
2022/05/20 05:25:40;;;;;;;1999.90;606.60;;;13.30;99.90;;;;;;5095528;28;20118;-84
2022/05/20 05:28:07;;;;;;;1999.90;618.40;;;11.60;99.90;;;;;;5078954;28;20032;-84
2022/05/20 05:30:33;;;;;;;1999.90;599.35;;;12.40;99.90;;;;;;5078459;28;20047;-83
2022/05/20 05:32:59;;;;;;;1999.90;999.90;;;12.50;99.90;;;;;;5077947;28;20075;-83
2022/05/20 05:35:28;;;;;;;1858.88;789.72;;;12.40;99.90;;;;;;5095632;28;20122;-82
2022/05/20 05:37:54;;;;;;;1977.15;329.00;;;12.20;99.90;;;;;;5095732;28;20380;-83
2022/05/20 05:40:24;;;;;;;1999.90;424.60;;;12.30;99.90;;;;;;5076951;28;20039;-83
2022/05/20 05:42:50;;;;;;;1999.90;465.17;;;12.30;99.90;;;;;;5113477;28;20503;-83
2022/05/20 05:45:19;;;;;;;1999.90;592.60;;;12.40;99.90;;;;;;5095208;28;20161;-83
2022/05/20 05:47:54;;;;;;;1999.90;648.88;;;12.50;99.90;;;;;;5095323;28;20148;-83
2022/05/20 05:50:20;;;;;;;1999.90;999.90;;;12.40;99.90;;;;;;5078167;28;20066;-83
2022/05/20 05:52:46;;;;;;;1999.90;443.85;;;12.40;99.90;;;;;;5078535;28;20039;-83
2022/05/20 05:55:13;;;;;;;1320.72;150.48;;;13.70;99.90;;;;;;5094520;28;20052;-83
2022/05/20 05:57:39;;;;;;;1999.90;450.92;;;12.60;99.90;;;;;;5078157;28;20055;-84
2022/05/20 06:00:06;;;;;;;1938.88;803.13;;;12.60;99.90;;;;;;5094799;28;20048;-83
2022/05/20 06:02:35;;;;;;;1874.72;453.42;;;12.60;99.90;;;;;;5077146;28;20480;-83
2022/05/20 06:05:01;;;;;;;1999.90;999.90;;;12.60;99.90;;;;;;5112765;28;20138;-83
2022/05/20 06:07:27;;;;;;;1999.90;673.03;;;12.80;99.90;;;;;;5078091;28;20154;-83
2022/05/20 06:09:52;;;;;;;1999.90;663.65;;;13.00;99.90;;;;;;5094799;28;20047;-82
2022/05/20 06:12:18;;;;;;;1999.90;792.05;;;13.30;99.90;;;;;;5093896;28;20039;-84
2022/05/20 06:14:44;;;;;;;1999.90;770.47;;;13.50;99.90;;;;;;5094872;28;20067;-83
2022/05/20 06:17:11;;;;;;;1999.90;614.00;;;13.80;99.90;;;;;;5060953;28;20048;-83
2022/05/20 06:19:38;;;;;;;1999.90;977.15;;;14.20;99.90;;;;;;5094452;28;20126;-83
2022/05/20 06:22:04;;;;;;;1999.90;451.40;;;14.90;99.90;;;;;;5060857;28;20043;-84
2022/05/20 06:24:29;;;;;;;1999.90;531.63;;;14.40;99.90;;;;;;5060466;28;20387;-83
2022/05/20 06:26:55;;;;;;;1836.25;216.85;;;14.50;99.90;;;;;;5112684;28;20325;-84
2022/05/20 06:29:21;;;;;;;1005.35;119.75;;;14.60;99.90;;;;;;5077117;28;20044;-84
2022/05/20 06:31:47;;;;;;;1999.90;415.90;;;14.70;99.90;;;;;;5077176;28;20048;-83
2022/05/20 06:34:12;;;;;;;1999.90;999.90;;;14.90;99.90;;;;;;5094084;28;20069;-83
2022/05/20 06:41:54;;;;;;;1944.47;645.92;;;15.30;55.20;;;;;;5094157;28;20109;-83
2022/05/20 06:44:20;;;;;;;1999.90;967.10;;;15.30;21.70;;;;;;5076412;28;20452;-83
2022/05/20 06:46:46;;;;;;;1999.90;999.90;;;15.30;4.50;;;;;;5077414;28;20047;-83
2022/05/20 06:49:13;;;;;;;1999.90;999.90;;;15.40;1.00;;;;;;5076877;28;20073;-83
2022/05/20 06:51:38;;;;;;;1999.90;999.90;;;15.40;1.00;;;;;;5093989;28;20051;-84
2022/05/20 06:54:08;;;;;;;1999.90;999.90;;;15.50;1.00;;;;;;5076833;28;20498;-84
2022/05/20 06:56:34;;;;;;;1999.90;988.72;;;15.60;1.00;;;;;;5093515;28;20120;-83
2022/05/20 06:59:01;;;;;;;1999.90;999.90;;;15.60;1.00;;;;;;5112063;28;20060;-84
2022/05/20 07:01:28;;;;;;;1999.90;964.20;;;16.90;1.00;;;;;;5091608;28;20062;-83
2022/05/20 07:03:54;;;;;;;1999.90;958.65;;;16.20;1.00;;;;;;5112144;28;20139;-82
2022/05/20 07:06:21;;;;;;;1999.90;999.90;;;17.30;1.00;;;;;;5093298;28;20475;-83
2022/05/20 07:08:50;;;;;;;1999.90;999.90;;;17.80;1.00;;;;;;5076539;28;20039;-83
2022/05/20 07:11:20;;;;;;;1999.90;999.90;;;17.60;1.00;;;;;;5076593;28;20035;-82
2022/05/20 07:13:54;;;;;;;1999.90;999.90;;;17.80;1.00;;;;;;5094050;28;20040;-83
2022/05/20 07:16:20;;;;;;;1999.90;999.90;;;18.10;1.00;;;;;;5093550;28;20115;-81
2022/05/20 07:18:46;;;;;;;1999.90;999.90;;;18.20;1.00;;;;;;5060120;28;20574;-83
2022/05/20 07:21:12;;;;;;;1999.90;992.78;;;18.20;1.00;;;;;;5093429;28;20071;-82
2022/05/20 07:23:38;;;;;;;1999.90;999.90;;;18.00;1.00;;;;;;5093729;28;20043;-82
2022/05/20 07:26:05;;;;;;;1072.25;947.95;;;18.50;1.00;;;;;;5078218;28;20480;-83
2022/05/20 07:28:31;;;;;;;1649.20;924.67;;;19.50;1.00;;;;;;5077683;28;20136;-83
2022/05/20 07:30:57;;;;;;;1885.35;990.83;;;20.60;1.00;;;;;;5060114;28;20058;-83
2022/05/20 07:33:23;;;;;;;1764.03;938.28;;;;;;;;;;5076326;28;20040;-85
2022/05/20 07:35:49;;;;;;;1557.32;967.30;;;20.50;1.00;;;;;;5093364;28;20128;-82
2022/05/20 07:38:16;;;;;;;1999.90;999.90;;;19.50;1.00;;;;;;5092725;28;20176;-83
2022/05/20 07:40:44;;;;;;;1999.90;999.90;;;18.80;1.00;;;;;;5076133;28;20051;-83
2022/05/20 07:43:12;;;;;;;1999.90;999.90;;;18.70;1.00;;;;;;5093383;28;20069;-83
2022/05/20 07:45:38;;;;;;;1999.90;999.90;;;19.00;1.00;;;;;;5094536;28;20063;-82
2022/05/20 07:48:04;;;;;;;1747.75;959.15;;;19.80;1.00;;;;;;5080838;28;20230;-83
2022/05/20 07:50:39;;;;;;;1938.78;999.90;;;20.50;1.00;;;;;;5079969;28;20051;-83
2022/05/20 07:53:20;;;;;;;1569.47;969.83;;;21.10;1.00;;;;;;5097370;28;20043;-83
2022/05/20 07:55:51;;;;;;;1806.43;976.28;;;21.70;1.00;;;;;;5079318;28;20050;-83
2022/05/20 07:58:20;;;;;;;985.20;873.55;;;21.20;99.90;;;;;;5096561;28;20055;-83
2022/05/20 08:00:46;;;;;;;1476.88;998.22;;;21.20;99.90;;;;;;5079349;28;20051;-82
2022/05/20 08:04:52;;;;;;;1287.68;976.05;;;21.90;99.90;;;;;;5080333;28;20097;-83
2022/05/20 08:06:02;;;;;;;1463.82;999.90;;;20.90;99.90;;;;;;5097179;28;20043;-83
2022/05/20 08:08:29;;;;;;;1525.53;999.90;;;21.70;99.90;;;;;;5096697;28;20446;-83
2022/05/20 08:10:54;;;;;;;1106.85;934.90;;;22.10;99.90;;;;;;5115108;28;20095;-83
2022/05/20 08:13:21;;;;;;;1266.10;999.90;;;21.70;99.90;;;;;;5063435;28;20039;-82
2022/05/20 08:15:49;;;;;;;1195.68;964.28;;;22.00;99.90;;;;;;5080217;28;20043;-83
2022/05/20 08:18:17;;;;;;;1009.42;908.38;;;22.20;99.90;;;;;;5080067;28;20109;-86
2022/05/20 08:20:43;;;;;;;1161.93;999.90;;;23.40;99.90;;;;;;5097020;28;20057;-83
2022/05/20 08:23:12;;;;;;;1330.07;999.90;;;22.40;99.90;;;;;;5115356;28;20048;-83
2022/05/20 08:25:38;;;;;;;1241.18;999.90;;;21.90;99.90;;;;;;5079594;28;20039;-83
2022/05/20 08:28:05;;;;;;;1193.47;981.47;;;22.40;99.90;;;;;;5096945;28;20040;-83
2022/05/20 08:30:31;;;;;;;1083.03;965.63;;;22.50;99.90;;;;;;5096141;28;20036;-82
2022/05/20 08:32:57;;;;;;;907.50;813.95;;;22.30;99.90;;;;;;5115054;28;20044;-83
2022/05/20 08:35:26;;;;;;;936.58;841.25;;;22.10;99.90;;;;;;5096236;28;20086;-84
2022/05/20 08:37:52;;;;;;;1072.65;931.22;;;21.30;99.90;;;;;;5096688;28;20039;-83
2022/05/20 08:40:31;;;;;;;979.45;876.85;;;21.10;99.90;;;;;;5114199;28;20162;-83
2022/05/20 08:43:01;;;;;;;1046.10;932.78;;;20.70;99.90;;;;;;5079637;28;20048;-83
2022/05/20 08:45:29;;;;;;;957.50;862.05;;;20.60;99.90;;;;;;5079628;28;20387;-83
2022/05/20 08:47:55;;;;;;;1068.75;944.97;;;21.00;99.90;;;;;;5096044;28;20169;-84
2022/05/20 08:50:26;;;;;;;1044.35;931.85;;;22.20;99.90;;;;;;5114025;28;20042;-84
2022/05/20 08:52:55;;;;;;;1051.18;925.15;;;22.50;99.90;;;;;;5096547;28;20050;-83
2022/05/20 08:55:22;;;;;;;1016.45;912.85;;;22.90;99.90;;;;;;5095667;28;20048;-82
2022/05/20 08:58:00;;;;;;;1143.32;999.90;;;23.00;99.90;;;;;;5078123;28;20052;-83
2022/05/20 09:00:28;;;;;;;973.53;873.75;;;22.70;99.90;;;;;;5078906;28;20040;-83
2022/05/20 09:02:53;;;;;;;874.25;798.95;;;23.60;99.90;;;;;;5113161;28;20047;-83
2022/05/20 09:05:22;;;;;;;969.50;881.13;;;22.90;99.90;;;;;;5114084;28;20039;-83
2022/05/20 09:08:05;;;;;;;1043.35;941.97;;;22.40;99.90;;;;;;5079491;28;20062;-83
2022/05/20 09:10:36;;;;;;;953.95;861.50;;;22.20;99.90;;;;;;5113407;28;20047;-82
2022/05/20 09:13:12;;;;;;;971.45;875.85;;;22.10;99.90;;;;;;5096500;28;20046;-83
2022/05/20 09:15:44;;;;;;;885.20;799.28;;;22.30;99.90;;;;;;5095928;28;20390;-82
2022/05/20 09:18:30;;;;;;;915.78;829.10;;;22.60;99.90;;;;;;5063327;28;20043;-83
2022/05/20 09:20:56;;;;;;;1004.35;900.33;;;23.40;99.90;;;;;;5079447;28;20086;-83
2022/05/20 09:23:24;;;;;;;969.58;874.75;;;23.40;99.90;;;;;;5078955;28;20112;-83
2022/05/20 09:26:10;;;;;;;926.47;835.22;;;23.30;99.90;;;;;;5079163;28;20437;-83
2022/05/20 09:28:51;;;;;;;830.28;757.70;;;24.20;99.90;;;;;;5096576;28;20065;-84
2022/05/20 09:31:50;;;;;;;961.63;856.38;;;24.30;99.90;;;;;;5095786;28;20047;-83
2022/05/20 09:34:27;;;;;;;678.72;617.80;;;24.40;99.90;;;;;;5095681;28;20126;-83
2022/05/20 09:37:05;;;;;;;738.72;681.13;;;25.00;99.90;;;;;;5095394;28;20177;-82
2022/05/20 09:39:34;;;;;;;;;;;25.10;99.90;;;;;;5095166;28;20149;-83
2022/05/20 09:42:07;;;;;;;;;;;25.20;99.90;;;;;;5080520;28;19999;-83
2022/05/20 09:44:39;;;;;;;639.83;586.42;;;25.10;99.90;;;;;;5095971;28;19923;-83
2022/05/20 09:47:20;;;;;;;366.33;343.52;;;25.50;99.90;;;;;;5095769;28;20110;-83
2022/05/20 09:49:53;;;;;;;396.45;368.77;;;25.10;99.90;;;;;;5077858;28;20047;-85
2022/05/20 09:52:25;;;;;;;315.02;295.45;;;24.80;99.90;;;;;;5094700;28;20051;-85
2022/05/20 09:55:01;;;;;;;373.42;349.00;;;24.50;99.90;;;;;;5078098;28;20495;-84
2022/05/20 09:57:47;;;;;;;518.53;479.05;;;24.20;99.90;;;;;;5094902;28;20052;-83
2022/05/20 10:00:26;;;;;;;429.30;399.13;;;23.80;99.90;;;;;;5094981;28;20124;-83
2022/05/20 10:03:22;;;;;;;374.42;347.90;;;23.50;99.90;;;;;;5094278;28;20105;-84
2022/05/20 10:05:59;;;;;;;386.60;358.17;;;23.20;99.90;;;;;;5095061;28;20051;-84
2022/05/20 10:08:46;;;;;;;497.40;460.77;;;22.90;99.90;;;;;;5077369;28;20043;-84
2022/05/20 10:11:29;;;;;;;390.85;363.08;;;22.60;99.90;;;;;;5095147;28;20050;-83
2022/05/20 10:14:20;;;;;;;449.20;415.42;;;22.80;99.90;;;;;;5078110;28;20395;-83
2022/05/20 10:17:09;;;;;;;482.63;445.80;;;22.70;99.90;;;;;;5076327;28;20109;-84
2022/05/20 10:19:49;;;;;;;496.63;459.92;;;22.90;99.90;;;;;;5077294;28;20051;-83
2022/05/20 10:22:52;;;;;;;462.33;428.63;;;23.10;99.90;;;;;;5094698;28;20048;-84
2022/05/20 10:25:26;;;;;;;773.08;707.10;;;22.10;99.90;;;;;;5094532;28;20094;-83
2022/05/20 10:28:04;;;;;;;355.05;330.23;;;23.10;99.90;;;;;;5077291;28;20539;-83
2022/05/20 10:33:28;;;;;;;362.75;336.60;;;23.10;99.90;;;;;;5094707;28;20043;-84
2022/05/20 10:36:03;;;;;;;501.55;465.42;;;22.30;99.90;;;;;;5077648;28;20040;-82
2022/05/20 10:38:48;;;;;;;530.78;492.27;;;22.20;99.90;;;;;;5093961;28;20052;-84
2022/05/20 10:42:08;;;;;;;504.38;467.98;;;22.30;99.90;;;;;;5112881;28;20075;-84
2022/05/20 10:51:02;;;;;;;464.42;429.52;;;23.40;99.90;;;;;;5094462;28;20063;-84
2022/05/20 10:53:37;;;;;;;468.17;433.92;;;23.60;99.90;;;;;;5076987;28;20071;-85
2022/05/20 10:56:24;;;;;;;550.50;508.42;;;23.90;99.90;;;;;;5077131;28;20051;-83
2022/05/20 10:59:16;;;;;;;655.38;597.55;;;24.00;99.90;;;;;;5076079;28;20059;-83
2022/05/20 11:01:55;;;;;;;463.38;430.33;;;24.60;99.90;;;;;;5092334;28;20063;-83
2022/05/20 11:04:31;;;;;;;508.77;471.42;;;24.70;99.90;;;;;;5077408;28;20043;-83
2022/05/20 11:07:06;;;;;;;543.95;500.70;;;24.60;99.90;;;;;;5093927;28;20094;-84
2022/05/20 11:09:37;;;;;;;662.40;611.53;;;24.90;99.90;;;;;;5076452;28;20130;-83
2022/05/20 11:12:04;;;;;;;329.70;305.90;;;24.60;99.90;;;;;;5077195;28;20079;-84
2022/05/20 11:15:01;;;;;;;559.10;515.03;;;25.10;99.90;;;;;;5076849;28;20214;-83
2022/05/20 11:17:39;;;;;;;689.70;631.95;;;25.20;99.90;;;;;;5076724;28;20087;-87
2022/05/20 11:20:14;;;;;;;401.55;372.95;;;25.30;99.90;;;;;;5076175;28;20053;-84
2022/05/20 11:22:59;;;;;;;814.90;746.45;;;25.30;99.90;;;;;;5076639;28;20047;-83
2022/05/20 11:25:43;;;;;;;506.55;467.08;;;26.10;99.90;;;;;;5076755;28;20093;-84
2022/05/20 11:28:24;;;;;;;379.10;348.98;;;26.70;99.90;;;;;;5076925;28;20073;-83
2022/05/20 11:31:14;;;;;;;502.88;462.17;;;27.20;99.90;;;;;;5111944;28;20403;-82
2022/05/20 11:34:18;;;;;;;484.65;444.20;;;27.00;99.90;;;;;;5076783;28;20035;-86
2022/05/20 11:37:08;;;;;;;517.15;473.08;;;27.20;99.90;;;;;;5024837;28;20158;-84
2022/05/20 11:39:48;;;;;;;721.17;660.53;;;27.40;99.90;;;;;;5076247;28;20061;-83
2022/05/20 11:42:29;;;;;;;548.22;503.23;;;27.00;99.90;;;;;;5076921;28;20388;-84
2022/05/20 11:45:25;;;;;;;340.15;313.55;;;27.60;99.90;;;;;;5076725;28;20044;-84
2022/05/20 11:47:56;;;;;;;735.33;674.15;;;27.80;99.90;;;;;;5034781;28;20056;-84
2022/05/20 11:50:53;;;;;;;559.95;512.55;;;27.90;99.90;;;;;;5111153;28;20423;-84
2022/05/20 11:53:31;;;;;;;497.52;455.88;;;27.60;99.90;;;;;;5076570;28;20511;-84
2022/05/20 11:56:06;;;;;;;326.73;301.13;;;26.90;99.90;;;;;;5076529;28;20040;-83
2022/05/20 11:58:58;;;;;;;711.60;652.63;;;26.60;99.90;;;;;;5093846;28;20134;-83
2022/05/20 12:01:25;;;;;;;534.17;489.83;;;26.50;99.90;;;;;;5099639;28;20147;-84
2022/05/20 12:04:07;;;;;;;518.92;481.20;;;27.00;99.90;;;;;;5095613;28;20043;-83
2022/05/20 12:06:48;;;;;;;505.00;462.80;;;27.10;99.90;;;;;;5076466;28;20126;-83
2022/05/20 12:09:29;;;;;;;676.13;617.15;;;27.20;99.90;;;;;;5076477;28;20424;-85
2022/05/20 12:12:15;;;;;;;658.30;606.60;;;26.20;99.90;;;;;;5092743;28;20464;-83
2022/05/20 12:15:00;;;;;;;405.00;376.60;;;26.30;99.90;;;;;;5076343;28;20058;-84
2022/05/20 12:17:34;;;;;;;592.25;543.45;;;26.30;99.90;;;;;;5076345;28;20124;-84
2022/05/20 12:26:22;;;;;;;503.35;463.60;;;24.70;99.90;;;;;;5051078;28;20098;-84
2022/05/20 12:28:49;;;;;;;440.45;405.20;;;24.90;99.90;;;;;;5092807;28;20055;-83
2022/05/20 12:31:39;;;;;;;501.20;460.33;;;24.90;99.90;;;;;;5111231;28;20055;-83
2022/05/20 12:34:10;;;;;;;349.45;326.70;;;24.80;99.90;;;;;;5096974;28;20424;-83
2022/05/20 12:36:41;;;;;;;401.63;372.15;;;24.90;99.90;;;;;;5096271;28;20081;-83
2022/05/20 12:39:10;;;;;;;322.05;300.80;;;24.80;99.90;;;;;;5079603;28;20101;-85
2022/05/20 12:41:43;;;;;;;440.92;406.52;;;24.60;99.90;;;;;;5079700;28;20065;-84
2022/05/20 12:44:15;;;;;;;401.33;371.42;;;24.60;99.90;;;;;;5079893;28;20062;-84
2022/05/20 12:47:02;;;;;;;416.05;385.98;;;24.70;99.90;;;;;;5079399;28;20392;-83
2022/05/20 12:49:33;;;;;;;649.92;595.08;;;24.90;99.90;;;;;;5096415;28;20036;-84
2022/05/20 12:52:11;;;;;;;533.15;489.33;;;24.90;99.90;;;;;;5079740;28;20071;-83
2022/05/20 12:54:50;;;;;;;650.13;594.40;;;24.70;99.90;;;;;;5114009;28;20480;-83
2022/05/20 12:57:24;;;;;;;397.13;367.08;;;24.40;99.90;;;;;;5096136;28;20066;-83
2022/05/20 13:00:07;;;;;;;597.90;546.83;;;24.30;99.90;;;;;;5113914;28;20055;-83
2022/05/20 13:02:42;;;;;;;581.40;530.95;;;24.20;99.90;;;;;;5078378;28;20039;-83